Аэропорт: Атырау. Атырау

ICAO: UATG

METAR:
2020-06-02 09:00:00
UATG 020900Z 13006MPS CAVOK 34/03 Q1007 R14/CLRD70 NOSIG RMK QFE757/1010
METAR:
2020-06-02 05:01:00
TAF UATG 020501Z 0206/0306 08010MPS 9999 SCT050 TX36/0212Z TN24/0301Z BECMG 0209/0211 23007MPS BECMG 0220/0221 06006MPS